createdAt,value
2022-10-12T00:04:30.680Z,19.19628
2022-10-12T00:09:32.271Z,19.57712
2022-10-12T00:14:33.894Z,19.09082
2022-10-12T00:19:35.472Z,18.94598
2022-10-12T00:24:41.975Z,19.26965
2022-10-12T00:29:44.659Z,18.65885
2022-10-12T00:34:46.458Z,18.55307
2022-10-12T00:39:48.035Z,18.16176
2022-10-12T00:44:49.634Z,18.42062
2022-10-12T00:49:51.295Z,17.092
2022-10-12T00:54:52.933Z,17.55446
2022-10-12T00:59:54.542Z,17.34069
2022-10-12T01:04:56.151Z,16.96495
2022-10-12T01:09:57.790Z,16.7604
2022-10-12T01:14:59.397Z,16.84806
2022-10-12T01:20:01.012Z,16.61461
2022-10-12T01:25:02.667Z,16.13691
2022-10-12T01:30:04.414Z,16.03082
2022-10-12T01:35:06.034Z,15.83231
2022-10-12T01:40:07.651Z,15.69954
2022-10-12T01:45:09.243Z,15.67318
2022-10-12T01:50:10.892Z,15.84724
2022-10-12T01:55:12.546Z,15.71733
2022-10-12T02:00:14.196Z,15.65031
2022-10-12T02:05:15.804Z,15.16341
2022-10-12T02:10:17.461Z,15.17039
2022-10-12T02:15:19.079Z,14.57359
2022-10-12T02:20:20.903Z,14.35317
2022-10-12T02:25:22.469Z,13.97331
2022-10-12T02:30:24.086Z,14.70413
2022-10-12T02:35:25.690Z,14.57232
2022-10-12T02:40:27.297Z,13.88025
2022-10-12T02:45:28.859Z,13.86119
2022-10-12T02:50:30.472Z,13.44162
2022-10-12T02:55:32.120Z,14.10003
2022-10-12T03:00:33.736Z,13.87675
2022-10-12T03:05:36.893Z,13.98093
2022-10-12T03:10:38.662Z,14.30902
2022-10-12T03:15:40.280Z,14.09336
2022-10-12T03:20:41.936Z,13.73859
2022-10-12T03:25:43.551Z,14.02666
2022-10-12T03:30:45.127Z,13.95552
2022-10-12T03:35:46.795Z,14.20866
2022-10-12T03:40:48.389Z,14.30045
2022-10-12T03:45:49.975Z,14.19881
2022-10-12T03:50:51.534Z,14.1969
2022-10-12T03:55:53.082Z,14.11115
2022-10-12T04:00:54.693Z,13.45179
2022-10-12T04:05:56.257Z,13.75542
2022-10-12T04:10:57.832Z,14.18293
2022-10-12T04:15:59.428Z,13.87612
2022-10-12T04:21:01.103Z,13.62139
2022-10-12T04:26:02.702Z,14.10353
2022-10-12T04:31:04.336Z,13.96695
2022-10-12T04:36:06.063Z,13.70556
2022-10-12T04:41:07.686Z,13.20119
2022-10-12T04:46:09.321Z,13.48514
2022-10-12T04:51:10.899Z,13.60551
2022-10-12T04:56:12.519Z,13.73256
2022-10-12T05:01:14.141Z,13.33872
2022-10-12T05:06:15.761Z,13.74621
2022-10-12T05:11:17.365Z,13.07288
2022-10-12T05:16:18.963Z,13.43877
2022-10-12T05:21:20.586Z,13.59471
2022-10-12T05:26:22.158Z,12.98204
2022-10-12T05:31:23.770Z,13.42447
2022-10-12T05:36:25.420Z,13.02301
2022-10-12T05:41:27.004Z,12.20835
2022-10-12T05:46:28.603Z,12.66189
2022-10-12T05:51:30.242Z,12.32777
2022-10-12T05:56:31.995Z,12.14642
2022-10-12T06:01:33.637Z,12.35255
2022-10-12T06:06:35.346Z,11.78149
2022-10-12T06:11:36.985Z,12.12641
2022-10-12T06:16:38.594Z,11.84469
2022-10-12T06:21:40.225Z,11.66874
2022-10-12T06:26:42.097Z,12.14007
2022-10-12T06:31:47.694Z,11.37464
2022-10-12T06:36:52.390Z,11.18725
2022-10-12T06:41:54.036Z,11.61125
2022-10-12T06:46:55.620Z,11.76688
2022-10-12T06:51:57.218Z,11.27587
2022-10-12T06:56:58.948Z,10.50187
2022-10-12T07:02:00.656Z,11.09579
2022-10-12T07:07:02.386Z,10.96335
2022-10-12T07:12:04.056Z,10.54062
2022-10-12T07:17:05.680Z,11.02718
2022-10-12T07:22:07.293Z,10.26145
2022-10-12T07:27:08.850Z,10.95699
2022-10-12T07:32:10.443Z,10.3418
2022-10-12T07:37:12.108Z,10.59048
2022-10-12T07:42:18.933Z,10.15378
2022-10-12T07:47:21.042Z,9.99657
2022-10-12T07:52:22.650Z,9.93051
2022-10-12T07:57:24.337Z,9.97466
2022-10-12T08:02:26.006Z,10.12647
2022-10-12T08:07:27.578Z,9.49794
2022-10-12T08:12:29.214Z,9.75456
2022-10-12T08:17:30.820Z,9.01234
2022-10-12T08:22:32.434Z,9.33311
2022-10-12T08:27:34.028Z,9.23053
2022-10-12T08:32:35.616Z,9.24704
2022-10-12T08:37:37.525Z,9.27436
2022-10-12T08:42:39.301Z,8.81607
2022-10-12T08:47:41.464Z,9.01044
2022-10-12T08:52:43.452Z,9.29659
2022-10-12T08:57:49.117Z,8.75572
2022-10-12T09:02:51.722Z,8.64584
2022-10-12T09:07:53.304Z,9.15748
2022-10-12T09:12:54.895Z,8.89451
2022-10-12T09:17:56.466Z,8.68427
2022-10-12T09:22:58.074Z,7.53586
2022-10-12T09:27:59.677Z,8.50419
2022-10-12T09:33:01.500Z,8.30379
2022-10-12T09:38:03.084Z,8.45401
2022-10-12T09:43:04.814Z,8.31713
2022-10-12T09:48:06.472Z,8.48259
2022-10-12T09:53:08.082Z,8.19136
2022-10-12T09:58:09.715Z,8.69856
2022-10-12T10:03:11.318Z,8.37874
2022-10-12T10:08:12.893Z,8.20597
2022-10-12T10:13:14.481Z,7.64511
2022-10-12T10:18:16.111Z,7.88648
2022-10-12T10:23:17.707Z,7.79628
2022-10-12T10:28:19.293Z,7.68068
2022-10-12T10:33:20.938Z,7.72387
2022-10-12T10:38:22.541Z,7.3615
2022-10-12T10:43:24.249Z,7.60985
2022-10-12T10:48:25.832Z,7.30275
2022-10-12T10:53:27.446Z,7.61684
2022-10-12T10:58:29.026Z,7.5492
2022-10-12T11:03:30.597Z,7.18556
2022-10-12T11:08:32.193Z,7.17412
2022-10-12T11:13:33.815Z,7.34117
2022-10-12T11:18:35.410Z,7.24939
2022-10-12T11:23:37.032Z,6.87813
2022-10-12T11:28:38.678Z,5.67988
2022-10-12T11:33:40.310Z,6.30298
2022-10-12T11:38:41.932Z,6.27885
2022-10-12T11:43:43.539Z,6.65137
2022-10-12T11:48:45.127Z,6.40906
2022-10-12T11:53:46.751Z,6.10227
2022-10-12T11:59:00.587Z,6.07273
2022-10-12T12:04:22.644Z,6.32934
2022-10-12T12:09:31.301Z,6.50719
2022-10-12T12:14:32.960Z,5.89235
2022-10-12T12:19:34.567Z,6.05495
2022-10-12T12:24:38.636Z,6.48941
2022-10-12T12:29:41.021Z,6.31886
2022-10-12T12:34:43.087Z,6.4189
2022-10-12T12:39:45.229Z,5.87043
2022-10-12T12:44:46.856Z,5.90315
2022-10-12T12:49:48.450Z,6.11021
2022-10-12T12:54:53.248Z,6.41636
2022-10-12T12:59:55.356Z,5.60906
2022-10-12T13:04:57.014Z,5.89266
2022-10-12T13:09:58.593Z,5.7415
2022-10-12T13:15:00.195Z,5.69386
2022-10-12T13:20:01.901Z,6.12355
2022-10-12T13:25:03.551Z,5.76722
2022-10-12T13:30:05.254Z,6.17754
2022-10-12T13:35:06.898Z,6.45574
2022-10-12T13:40:08.491Z,5.68433
2022-10-12T13:45:10.098Z,6.00414
2022-10-12T13:50:11.706Z,6.02097
2022-10-12T13:55:13.346Z,5.72625
2022-10-12T14:00:14.950Z,5.64686
2022-10-12T14:05:16.587Z,5.84916
2022-10-12T14:10:18.196Z,5.13079
2022-10-12T14:15:19.855Z,5.01773
2022-10-12T14:20:21.480Z,5.48584
2022-10-12T14:25:23.049Z,5.22352
2022-10-12T14:30:24.609Z,5.49029
2022-10-12T14:35:26.235Z,5.31879
2022-10-12T14:40:27.849Z,5.51506
2022-10-12T14:45:29.420Z,5.58556
2022-10-12T14:50:31.050Z,5.46583
2022-10-12T14:55:32.662Z,5.74118
2022-10-12T15:00:34.353Z,5.81994
2022-10-12T15:05:36.013Z,6.19913
2022-10-12T15:10:37.587Z,7.4012
2022-10-12T15:15:39.161Z,7.28179
2022-10-12T15:20:43.231Z,7.31196
2022-10-12T15:25:48.584Z,6.632
2022-10-12T15:31:15.764Z,8.32062
2022-10-12T15:36:18.569Z,8.3689
2022-10-12T15:41:20.135Z,7.98048
2022-10-12T15:46:21.722Z,10.40786
2022-10-12T15:51:23.330Z,8.48799
2022-10-12T15:56:24.935Z,7.88679
2022-10-12T16:01:26.615Z,9.38012
2022-10-12T16:06:28.230Z,8.76112
2022-10-12T16:11:29.843Z,9.15462
2022-10-12T16:16:31.364Z,9.60275
2022-10-12T16:21:32.997Z,9.62689
2022-10-12T16:26:34.572Z,11.57314
2022-10-12T16:31:36.259Z,10.57301
2022-10-12T16:36:37.926Z,11.83993
2022-10-12T16:41:39.526Z,10.76008
2022-10-12T16:46:41.122Z,11.90313
2022-10-12T16:51:42.810Z,10.79502
2022-10-12T16:56:44.434Z,11.98508
2022-10-12T17:01:46.019Z,10.36276
2022-10-12T17:06:47.633Z,13.70969
2022-10-12T17:11:49.230Z,14.52341
2022-10-12T17:16:50.973Z,14.18293
2022-10-12T17:21:52.550Z,14.85183
2022-10-12T17:26:54.312Z,12.79751
2022-10-12T17:31:55.872Z,12.61267
2022-10-12T17:36:57.470Z,13.70905
2022-10-12T17:41:59.102Z,13.52706
2022-10-12T17:47:00.737Z,15.01921
2022-10-12T17:52:02.328Z,15.6608
2022-10-12T17:57:03.998Z,14.0905
2022-10-12T18:02:09.389Z,14.73621
2022-10-12T18:07:11.324Z,13.92662
2022-10-12T18:12:12.909Z,15.54868
2022-10-12T18:17:14.549Z,16.67527
2022-10-12T18:22:16.402Z,15.65095
2022-10-12T18:27:18.200Z,17.79013
2022-10-12T18:32:20.217Z,17.12725
2022-10-12T18:37:22.013Z,16.41133
2022-10-12T18:42:23.772Z,16.93827
2022-10-12T18:47:25.382Z,17.30163
2022-10-12T18:52:27.025Z,16.48375
2022-10-12T18:57:31.216Z,17.01227
2022-10-12T19:02:34.522Z,17.10406
2022-10-12T19:07:36.141Z,17.95244
2022-10-12T19:12:40.152Z,17.25875
2022-10-12T19:17:45.393Z,18.23545
2022-10-12T19:22:46.988Z,18.62454
2022-10-12T19:27:48.565Z,17.91941
2022-10-12T19:32:50.210Z,18.66012
2022-10-12T19:37:51.857Z,19.86489
2022-10-12T19:42:53.416Z,20.87434
2022-10-12T19:47:55.018Z,22.09153
2022-10-12T19:52:56.649Z,20.72346
2022-10-12T19:57:58.436Z,20.33562
2022-10-12T20:03:00.027Z,22.15029
2022-10-12T20:08:01.780Z,22.1109
2022-10-12T20:13:03.648Z,22.18142
2022-10-12T20:18:05.251Z,23.08734
2022-10-12T20:23:06.842Z,22.06485
2022-10-12T20:28:08.462Z,22.66233
2022-10-12T20:33:10.099Z,21.79231
2022-10-12T20:38:11.696Z,22.60611
2022-10-12T20:43:13.317Z,21.93017
2022-10-12T20:48:14.913Z,21.28726
2022-10-12T20:53:17.492Z,21.56488
2022-10-12T20:58:19.040Z,22.46063
2022-10-12T21:03:20.669Z,22.53115
2022-10-12T21:08:22.279Z,22.51018
2022-10-12T21:13:23.959Z,22.85482
2022-10-12T21:18:25.586Z,21.69892
2022-10-12T21:23:27.185Z,22.65947
2022-10-12T21:28:28.805Z,22.32627
2022-10-12T21:33:30.432Z,23.32589
2022-10-12T21:38:32.067Z,23.42373
2022-10-12T21:43:33.706Z,22.28148
2022-10-12T21:48:35.325Z,22.47778
2022-10-12T21:53:36.960Z,23.12768
2022-10-12T21:58:38.557Z,21.89618
2022-10-12T22:03:40.114Z,22.67567
2022-10-12T22:08:41.703Z,23.68197
2022-10-12T22:13:43.337Z,21.74498
2022-10-12T22:18:44.914Z,21.83329
2022-10-12T22:23:46.503Z,22.91327
2022-10-12T22:28:48.451Z,23.21249
2022-10-12T22:33:50.060Z,22.82592
2022-10-12T22:38:51.653Z,21.97464
2022-10-12T22:43:53.373Z,20.64691
2022-10-12T22:48:54.985Z,20.56178
2022-10-12T22:53:56.584Z,21.79962
2022-10-12T22:58:58.225Z,21.88856
2022-10-12T23:03:59.839Z,20.66882
2022-10-12T23:09:01.498Z,21.06238
2022-10-12T23:14:03.093Z,20.45379
2022-10-12T23:19:04.728Z,19.71433
2022-10-12T23:24:06.318Z,19.91444
2022-10-12T23:29:07.935Z,19.88236
2022-10-12T23:34:09.535Z,19.68543
2022-10-12T23:39:11.114Z,19.47643
2022-10-12T23:44:12.730Z,18.6004
2022-10-12T23:49:14.356Z,18.71284
2022-10-12T23:54:15.964Z,18.28436
2022-10-12T23:59:17.613Z,18.29357
